Time;durP1;ratioP1;P1;durP2;ratioP2;P2;SDS_P1;SDS_P2;PMS_P1;PMS_P2;Temp;Humidity;BMP_temperature;BMP_pressure;BME280_temperature;BME280_humidity;BME280_pressure;Samples;Min_cycle;Max_cycle;Signal;HPM_P1;HPM_P2
2022/12/30 00:00:13;;;;;;;4.30;1.10;;;;;;;9.41;70.94;99712.59;1087562;54;20041;-82
2022/12/30 00:01:20;;;;;;;4.60;1.27;;;;;;;9.40;70.96;99713.59;1087572;54;20030;-83
2022/12/30 00:02:22;;;;;;;2.75;0.90;;;;;;;9.36;71.26;99717.50;1087530;54;20035;-81
2022/12/30 00:03:26;;;;;;;3.92;1.13;;;;;;;9.28;71.10;99717.41;1087511;54;20031;-83
2022/12/30 00:04:28;;;;;;;5.53;1.13;;;;;;;9.44;70.91;99717.66;1087495;54;20118;-82
2022/12/30 00:05:35;;;;;;;4.25;1.33;;;;;;;9.45;70.90;99727.31;1087568;54;20041;-82
2022/12/30 00:06:40;;;;;;;4.32;1.20;;;;;;;9.38;70.82;99728.88;1087499;54;20041;-82
2022/12/30 00:07:57;;;;;;;3.22;0.90;;;;;;;9.51;70.27;99723.22;1087502;54;20038;-82
2022/12/30 00:09:01;;;;;;;2.80;1.17;;;;;;;9.44;70.50;99723.00;1088929;46;20094;-83
2022/12/30 00:10:22;;;;;;;4.82;1.10;;;;;;;9.44;70.35;99728.31;1087598;54;20106;-81
2022/12/30 00:11:31;;;;;;;3.92;1.02;;;;;;;9.42;70.47;99730.28;1087692;54;20041;-83
2022/12/30 00:33:09;;;;;;;4.35;1.30;;;;;;;9.00;71.53;99752.84;1087714;54;20038;-84
2022/12/30 00:34:19;;;;;;;2.50;0.80;;;;;;;8.97;71.67;99752.28;1087801;54;20066;-86
2022/12/30 00:35:24;;;;;;;4.40;1.00;;;;;;;8.82;71.87;99750.03;1087806;54;20061;-86
2022/12/30 00:36:35;;;;;;;4.75;0.95;;;;;;;8.89;71.73;99745.81;1087859;54;20074;-86
2022/12/30 00:37:37;;;;;;;5.40;1.35;;;;;;;8.82;71.91;99747.34;1087757;54;20034;-84
2022/12/30 00:38:44;;;;;;;3.97;1.00;;;;;;;8.93;72.04;99745.53;1087820;54;20086;-87
2022/12/30 00:39:51;;;;;;;4.22;1.23;;;;;;;8.86;71.84;99748.78;1087854;54;20031;-83
2022/12/30 00:43:35;;;;;;;6.60;1.20;;;;;;;8.74;72.34;99757.88;1087795;54;20038;-85
2022/12/30 00:44:39;;;;;;;5.60;1.48;;;;;;;8.76;72.33;99755.94;1087755;54;20034;-86
2022/12/30 00:45:48;;;;;;;3.88;0.98;;;;;;;8.84;72.30;99753.41;1087833;54;20042;-84
2022/12/30 00:46:58;;;;;;;5.30;1.15;;;;;;;8.85;71.99;99757.75;1087658;54;20033;-87
2022/12/30 00:56:25;;;;;;;4.50;1.10;;;;;;;8.65;72.98;99764.88;1087764;54;20030;-87
2022/12/30 00:57:30;;;;;;;7.72;1.38;;;;;;;8.65;73.07;99761.38;1087737;54;20289;-84
2022/12/30 00:58:39;;;;;;;3.85;1.23;;;;;;;8.66;72.68;99765.75;1087594;54;20706;-84
2022/12/30 00:59:46;;;;;;;5.90;1.23;;;;;;;8.67;73.03;99772.75;1087721;54;20050;-83
2022/12/30 01:00:55;;;;;;;4.28;1.30;;;;;;;8.73;72.70;99773.06;1087789;54;20034;-85
2022/12/30 01:01:59;;;;;;;3.00;0.95;;;;;;;8.77;72.47;99765.63;1087773;54;20086;-84
2022/12/30 01:03:04;;;;;;;4.05;1.27;;;;;;;8.71;72.66;99771.47;1087710;54;20030;-85
2022/12/30 01:04:09;;;;;;;4.97;0.93;;;;;;;8.62;72.94;99769.66;1087839;54;20062;-84
2022/12/30 01:05:10;;;;;;;5.32;1.35;;;;;;;8.60;72.97;99771.63;1087320;54;20038;-84
2022/12/30 01:06:15;;;;;;;4.10;1.00;;;;;;;8.57;73.38;99773.59;1087473;46;20050;-81
2022/12/30 01:07:17;;;;;;;5.82;1.25;;;;;;;8.52;73.57;99769.66;1087575;54;20070;-88
2022/12/30 01:08:21;;;;;;;5.25;1.63;;;;;;;8.52;73.42;99772.31;1087639;54;20058;-84
2022/12/30 01:09:33;;;;;;;4.22;1.13;;;;;;;8.66;73.03;99765.75;1087624;54;20034;-85
2022/12/30 01:10:38;;;;;;;6.78;1.48;;;;;;;8.57;73.24;99770.94;1087529;54;20065;-85
2022/12/30 01:11:43;;;;;;;6.35;1.30;;;;;;;8.56;73.10;99771.03;1087645;54;20015;-84
2022/12/30 01:12:44;;;;;;;3.72;1.13;;;;;;;8.57;73.14;99773.59;1087591;54;20046;-85
2022/12/30 01:13:48;;;;;;;4.18;1.40;;;;;;;8.49;73.41;99783.25;1087695;54;20099;-87
2022/12/30 01:14:52;;;;;;;4.07;1.35;;;;;;;8.44;73.49;99783.63;1087538;54;20034;-86
2022/12/30 01:15:56;;;;;;;4.93;1.40;;;;;;;8.44;73.62;99783.63;1087620;54;20717;-86
2022/12/30 01:16:58;;;;;;;4.15;1.00;;;;;;;8.50;73.50;99787.59;1087778;46;20074;-86
2022/12/30 01:18:03;;;;;;;5.03;1.60;;;;;;;8.46;73.67;99788.81;1087694;54;20058;-85
2022/12/30 01:19:05;;;;;;;3.55;0.90;;;;;;;8.39;73.78;99791.19;1087627;54;20035;-87
2022/12/30 01:20:10;;;;;;;6.35;1.20;;;;;;;8.40;73.98;99787.56;1087764;54;20086;-86
2022/12/30 01:21:12;;;;;;;6.75;1.60;;;;;;;8.28;74.17;99790.34;1087606;54;20023;-85
2022/12/30 01:22:17;;;;;;;5.82;1.48;;;;;;;8.30;74.27;99786.69;1087727;54;20034;-87
2022/12/30 01:23:18;;;;;;;6.13;1.20;;;;;;;8.28;74.60;99785.00;1087612;54;20046;-87
2022/12/30 01:24:23;;;;;;;3.58;1.00;;;;;;;8.28;74.38;99785.00;1087648;54;20034;-87
2022/12/30 01:25:24;;;;;;;5.00;1.20;;;;;;;8.23;74.66;99792.53;1087652;54;20023;-85
2022/12/30 01:26:31;;;;;;;4.95;1.35;;;;;;;8.10;75.29;99784.81;1087729;54;20026;-86
2022/12/30 01:27:33;;;;;;;5.13;1.35;;;;;;;8.14;75.04;99788.03;1087617;54;20039;-85
2022/12/30 01:28:39;;;;;;;5.85;1.42;;;;;;;8.28;74.40;99784.13;1087588;54;20019;-88
2022/12/30 01:29:41;;;;;;;5.22;1.23;;;;;;;8.22;74.47;99792.69;1087846;54;20037;-86
2022/12/30 01:30:46;;;;;;;6.13;1.33;;;;;;;8.18;74.68;99789.47;1087759;54;20037;-87
2022/12/30 01:31:47;;;;;;;4.55;1.40;;;;;;;8.16;74.79;99796.72;1087752;54;20690;-85
2022/12/30 01:32:52;;;;;;;5.40;1.52;;;;;;;8.16;75.05;99795.91;1087638;54;20030;-86
2022/12/30 01:33:53;;;;;;;5.15;1.10;;;;;;;8.32;74.43;99803.34;1087353;54;20042;-86
2022/12/30 01:34:58;;;;;;;3.88;1.30;;;;;;;8.21;74.62;99810.50;1087371;54;20026;-87
2022/12/30 01:36:01;;;;;;;3.85;1.20;;;;;;;8.28;74.26;99800.97;1087463;54;20038;-87
2022/12/30 01:37:05;;;;;;;4.70;1.35;;;;;;;8.39;74.07;99805.34;1087647;54;20034;-88
2022/12/30 01:38:07;;;;;;;3.88;1.30;;;;;;;8.22;74.53;99811.31;1087678;54;20038;-84
2022/12/30 01:39:11;;;;;;;4.63;1.10;;;;;;;8.34;74.12;99806.72;1087785;54;20081;-86
2022/12/30 01:40:15;;;;;;;4.97;1.15;;;;;;;8.37;74.08;99819.78;1087706;54;20035;-88
2022/12/30 01:41:17;;;;;;;4.97;1.13;;;;;;;8.28;74.18;99814.28;1087680;54;20050;-86
2022/12/30 01:42:33;;;;;;;6.60;1.92;;;;;;;8.19;74.67;99822.25;1087960;54;20128;-84
2022/12/30 02:19:40;;;;;;;4.55;1.15;;;;;;;8.07;75.26;99846.31;1087561;54;20027;-84
2022/12/30 02:21:30;;;;;;;5.78;1.48;;;;;;;8.06;75.16;99849.97;1087568;54;20038;-87
2022/12/30 02:22:53;;;;;;;4.85;1.67;;;;;;;7.92;76.01;99856.47;1087871;54;20057;-85
2022/12/30 02:24:26;;;;;;;4.93;1.45;;;;;;;7.92;75.91;99864.47;1087973;54;20042;-88
2022/12/30 02:25:57;;;;;;;5.07;1.30;;;;;;;7.89;75.95;99864.72;1088109;54;20098;-84
2022/12/30 02:27:11;;;;;;;5.88;1.20;;;;;;;7.82;76.34;99868.88;1088799;54;20026;-85
2022/12/30 02:28:47;;;;;;;5.65;1.40;;;;;;;7.79;76.36;99864.66;1092078;46;20034;-82
2022/12/30 02:30:06;;;;;;;4.55;1.60;;;;;;;7.75;76.66;99862.38;1088711;54;20014;-86
2022/12/30 02:31:29;;;;;;;4.95;1.30;;;;;;;7.70;76.91;99865.44;1089246;46;20041;-84
2022/12/30 02:32:38;;;;;;;5.35;1.40;;;;;;;7.74;76.87;99871.38;1092934;46;20053;-85
2022/12/30 02:33:52;;;;;;;5.75;1.30;;;;;;;7.73;76.87;99872.34;1088286;54;20038;-86
2022/12/30 02:35:02;;;;;;;3.47;1.27;;;;;;;7.71;76.72;99863.63;1088447;54;20031;-83
2022/12/30 02:36:18;;;;;;;3.50;1.00;;;;;;;7.66;77.00;99858.72;1088275;54;20030;-84
2022/12/30 02:37:27;;;;;;;5.65;1.10;;;;;;;7.60;77.36;99859.25;1088123;54;20014;-87
2022/12/30 02:38:41;;;;;;;5.38;1.10;;;;;;;7.62;77.42;99866.09;1088211;54;20083;-84
2022/12/30 02:39:48;;;;;;;6.95;1.33;;;;;;;7.72;77.24;99858.16;1088232;54;20031;-84
2022/12/30 02:45:05;;;;;;;5.35;1.67;;;;;;;7.81;76.75;99857.38;1088119;54;20048;-86
2022/12/30 02:46:09;;;;;;;4.20;1.15;;;;;;;7.85;76.73;99846.47;1088331;54;20027;-85
2022/12/30 02:47:26;;;;;;;7.28;1.40;;;;;;;7.85;76.51;99839.31;1088151;54;20030;-85
2022/12/30 02:57:25;;;;;;;5.75;1.10;;;;;;;8.04;75.22;99861.69;1088332;54;20027;-84
2022/12/30 02:58:31;;;;;;;4.43;1.30;;;;;;;7.96;75.78;99860.53;1088113;54;20049;-84
2022/12/30 03:04:09;;;;;;;4.75;1.25;;;;;;;7.67;76.91;99870.19;1088160;54;20069;-87
2022/12/30 03:05:25;;;;;;;4.45;1.48;;;;;;;7.73;76.79;99867.00;1088250;54;20063;-85
2022/12/30 03:07:05;;;;;;;4.45;1.52;;;;;;;7.59;77.56;99869.03;1088297;54;20059;-86
2022/12/30 03:09:21;;;;;;;4.45;1.25;;;;;;;7.62;77.20;99867.91;1087780;54;20018;-85
2022/12/30 03:12:05;;;;;;;3.90;1.23;;;;;;;7.69;76.80;99874.41;1087433;54;20070;-84
2022/12/30 03:13:14;;;;;;;3.88;1.17;;;;;;;7.79;76.26;99877.13;1087300;54;20038;-85
2022/12/30 03:14:22;;;;;;;4.13;1.10;;;;;;;7.81;76.04;99878.69;1087254;54;20065;-86
2022/12/30 03:15:33;;;;;;;5.40;1.17;;;;;;;7.90;75.88;99882.38;1087345;54;20094;-85
2022/12/30 03:16:38;;;;;;;4.60;1.30;;;;;;;7.96;75.75;99881.00;1087483;54;20050;-86
2022/12/30 03:17:47;;;;;;;5.40;1.33;;;;;;;8.04;75.13;99878.53;1087906;54;20039;-84
2022/12/30 03:18:50;;;;;;;8.02;1.60;;;;;;;8.01;75.45;99878.78;1087754;54;20046;-85
2022/12/30 03:19:58;;;;;;;4.75;1.20;;;;;;;7.93;75.69;99884.78;1087829;54;20087;-85
2022/12/30 03:27:06;;;;;;;4.18;1.27;;;;;;;7.65;76.63;99894.25;1088342;54;20078;-85
2022/12/30 03:28:11;;;;;;;8.32;1.35;;;;;;;7.54;76.72;99881.88;1088278;54;20045;-85
2022/12/30 03:30:20;;;;;;;5.45;1.73;;;;;;;7.59;76.71;99881.50;1088081;54;20026;-85
2022/12/30 03:31:21;;;;;;;6.88;1.38;;;;;;;7.63;76.34;99875.78;1088155;54;20042;-84
2022/12/30 03:32:26;;;;;;;4.68;1.45;;;;;;;7.61;76.63;99885.69;1088274;54;20090;-86
2022/12/30 03:33:31;;;;;;;5.00;1.20;;;;;;;7.73;76.00;99875.00;1088046;54;20034;-86
2022/12/30 03:34:36;;;;;;;5.25;1.50;;;;;;;7.70;76.21;99873.41;1087919;54;20055;-85
2022/12/30 03:35:47;;;;;;;5.30;1.40;;;;;;;7.69;76.35;99877.09;1088025;54;20046;-85
2022/12/30 03:36:56;;;;;;;4.03;1.23;;;;;;;7.78;76.04;99878.97;1088001;54;20038;-83
2022/12/30 03:37:58;;;;;;;3.65;1.30;;;;;;;7.80;75.70;99881.47;1089839;46;20042;-87
2022/12/30 03:39:08;;;;;;;5.20;1.33;;;;;;;7.68;75.75;99882.50;1087924;54;20035;-86
2022/12/30 03:40:13;;;;;;;4.75;1.20;;;;;;;7.70;76.11;99873.41;1087891;54;20046;-85
2022/12/30 03:41:19;;;;;;;6.75;1.50;;;;;;;7.64;76.12;99873.94;1088319;39;21006;-86
2022/12/30 03:42:24;;;;;;;5.38;1.75;;;;;;;7.56;76.22;99863.94;1087947;54;20753;-83
2022/12/30 03:43:27;;;;;;;5.35;1.63;;;;;;;7.50;76.50;99869.78;1091846;31;20726;-84
2022/12/30 03:44:32;;;;;;;5.57;1.73;;;;;;;7.48;76.74;99871.72;1087660;54;20037;-84
2022/12/30 03:45:33;;;;;;;6.70;1.77;;;;;;;7.43;76.64;99863.31;1087751;54;20057;-86
2022/12/30 03:46:37;;;;;;;6.43;1.77;;;;;;;7.42;76.79;99867.78;1087576;54;20030;-81
2022/12/30 03:47:39;;;;;;;7.03;1.38;;;;;;;7.48;76.44;99861.09;1087397;54;20114;-84
2022/12/30 03:48:46;;;;;;;5.60;1.30;;;;;;;7.37;76.93;99858.53;1087421;54;20059;-85
2022/12/30 03:49:47;;;;;;;5.47;1.35;;;;;;;7.40;76.84;99863.56;1087550;54;20277;-82
2022/12/30 03:50:51;;;;;;;6.07;1.55;;;;;;;7.40;76.70;99853.78;1089147;46;20060;-82
2022/12/30 03:51:55;;;;;;;4.65;1.45;;;;;;;7.33;77.04;99864.09;1087643;54;20039;-84
2022/12/30 03:52:57;;;;;;;5.05;1.63;;;;;;;7.32;76.97;99857.06;1087558;54;20031;-84
2022/12/30 03:54:01;;;;;;;7.68;2.35;;;;;;;7.25;77.17;99855.91;1087493;54;20034;-83
2022/12/30 03:55:03;;;;;;;5.00;1.52;;;;;;;7.22;77.34;99855.31;1087651;54;20042;-84
2022/12/30 03:56:09;;;;;;;4.22;1.67;;;;;;;7.20;77.72;99862.56;1088503;39;20984;-84
2022/12/30 03:57:10;;;;;;;6.55;1.45;;;;;;;7.07;77.91;99857.44;1087468;54;20042;-84
2022/12/30 03:58:14;;;;;;;6.63;2.13;;;;;;;7.09;77.91;99861.66;1087526;54;20031;-84
2022/12/30 03:59:16;;;;;;;5.60;1.75;;;;;;;7.07;78.13;99857.44;1087332;54;21136;-85
2022/12/30 04:00:22;;;;;;;6.50;1.20;;;;;;;7.17;77.56;99858.38;1087601;54;20818;-84
2022/12/30 04:01:23;;;;;;;3.90;1.13;;;;;;;7.12;77.70;99852.56;1087528;54;20034;-82
2022/12/30 04:02:28;;;;;;;5.03;1.55;;;;;;;7.01;77.88;99856.13;1087481;54;20035;-83
2022/12/30 04:03:29;;;;;;;3.83;1.20;;;;;;;6.91;78.33;99856.03;1087541;54;20041;-84
2022/12/30 04:04:36;;;;;;;4.30;1.45;;;;;;;7.01;78.27;99848.97;1087569;54;20038;-84
2022/12/30 04:05:38;;;;;;;4.55;1.20;;;;;;;7.11;77.67;99858.84;1087637;54;20038;-84
2022/12/30 04:06:42;;;;;;;5.10;1.60;;;;;;;7.11;77.74;99853.53;1088275;47;20041;-84
2022/12/30 04:07:43;;;;;;;4.63;1.30;;;;;;;7.28;77.11;99860.94;1087482;54;20963;-84
2022/12/30 04:08:47;;;;;;;3.45;1.20;;;;;;;7.37;76.65;99859.34;1087108;54;20042;-83
2022/12/30 04:09:49;;;;;;;3.30;1.20;;;;;;;7.42;76.39;99856.31;1087205;54;20039;-82
2022/12/30 04:10:54;;;;;;;4.40;1.10;;;;;;;7.46;76.06;99853.25;1089309;39;20762;-82
2022/12/30 04:11:55;;;;;;;3.83;1.20;;;;;;;7.51;76.24;99860.00;1087284;54;20042;-82
2022/12/30 04:13:00;;;;;;;4.57;1.35;;;;;;;7.51;76.04;99849.38;1087197;54;20030;-82
2022/12/30 04:14:01;;;;;;;3.30;1.02;;;;;;;7.47;75.90;99859.41;1087405;54;20090;-83
2022/12/30 04:15:07;;;;;;;3.47;1.10;;;;;;;7.57;75.84;99855.00;1087463;54;20030;-83
2022/12/30 04:16:08;;;;;;;3.72;1.30;;;;;;;7.61;75.69;99853.78;1087499;54;20082;-85
2022/12/30 04:17:13;;;;;;;3.95;1.38;;;;;;;7.63;75.78;99859.81;1087498;54;20033;-84
2022/12/30 04:18:14;;;;;;;3.58;1.17;;;;;;;7.61;75.60;99858.22;1089277;31;20683;-85
2022/12/30 04:19:18;;;;;;;3.72;1.13;;;;;;;7.59;75.53;99853.06;1087480;54;20078;-84
2022/12/30 04:20:22;;;;;;;3.72;1.00;;;;;;;7.53;75.80;99853.59;1087548;54;20035;-82
2022/12/30 04:21:27;;;;;;;3.80;1.30;;;;;;;7.42;75.97;99856.31;1088684;46;20691;-82
2022/12/30 04:22:29;;;;;;;5.63;1.30;;;;;;;7.44;76.00;99859.69;1087506;54;20030;-84
2022/12/30 04:23:33;;;;;;;4.82;1.20;;;;;;;7.32;76.36;99853.59;1087448;54;20038;-83
2022/12/30 04:24:34;;;;;;;5.60;1.60;;;;;;;7.18;77.13;99862.69;1087497;54;20086;-85
2022/12/30 04:25:40;;;;;;;4.30;1.45;;;;;;;7.05;77.32;99867.34;1087642;54;20037;-84
2022/12/30 04:26:41;;;;;;;5.30;1.40;;;;;;;6.98;77.82;99865.19;1087727;54;20027;-83
2022/12/30 04:27:45;;;;;;;5.13;1.20;;;;;;;6.93;77.78;99877.19;1087394;54;20034;-82
2022/12/30 04:28:47;;;;;;;5.03;1.33;;;;;;;6.93;77.79;99877.19;1087333;54;20766;-83
2022/12/30 04:29:51;;;;;;;5.78;1.40;;;;;;;6.99;77.66;99882.81;1087094;54;21037;-84
2022/12/30 04:30:52;;;;;;;4.13;1.30;;;;;;;7.03;77.55;99878.94;1087558;54;20053;-82
2022/12/30 04:31:56;;;;;;;3.28;1.20;;;;;;;7.10;77.23;99879.28;1087559;54;20040;-82
2022/12/30 04:32:58;;;;;;;4.57;1.20;;;;;;;7.14;76.77;99883.38;1087741;54;20050;-82
2022/12/30 04:34:15;;;;;;;3.22;1.23;;;;;;;7.09;77.45;99882.06;1087964;54;20102;-83
2022/12/30 04:35:16;;;;;;;4.22;1.13;;;;;;;7.08;77.04;99878.56;1087875;54;20090;-83
2022/12/30 04:36:24;;;;;;;4.20;1.30;;;;;;;7.02;77.26;99885.22;1087662;54;20030;-84
2022/12/30 04:37:28;;;;;;;3.80;1.10;;;;;;;7.01;77.16;99878.22;1087754;46;20061;-83
2022/12/30 04:38:30;;;;;;;4.93;1.45;;;;;;;6.95;77.54;99883.19;1087056;54;20038;-82
2022/12/30 04:39:34;;;;;;;5.57;1.67;;;;;;;6.94;77.54;99879.69;1088489;46;20056;-82
2022/12/30 04:40:36;;;;;;;5.43;1.38;;;;;;;6.97;77.71;99879.47;1087306;54;20038;-81
2022/12/30 04:41:40;;;;;;;4.55;1.33;;;;;;;7.04;77.52;99882.44;1087056;54;20030;-82
2022/12/30 04:42:42;;;;;;;5.18;1.40;;;;;;;7.07;77.17;99879.53;1087326;54;20065;-82
2022/12/30 04:43:46;;;;;;;5.80;1.98;;;;;;;7.05;76.94;99875.31;1087409;54;20030;-81
2022/12/30 04:44:48;;;;;;;4.78;1.50;;;;;;;7.02;77.23;99876.44;1087402;54;20037;-83
2022/12/30 04:45:52;;;;;;;5.22;1.70;;;;;;;6.97;77.36;99876.81;1087503;54;20031;-82
2022/12/30 04:46:53;;;;;;;5.82;1.30;;;;;;;6.93;77.38;99878.00;1087458;54;20185;-85
2022/12/30 04:47:58;;;;;;;3.40;1.15;;;;;;;6.93;77.40;99872.69;1087389;54;20037;-83
2022/12/30 04:48:59;;;;;;;4.85;2.03;;;;;;;7.05;76.82;99872.66;1087387;54;20064;-82
2022/12/30 04:50:04;;;;;;;3.47;1.38;;;;;;;7.11;76.65;99867.69;1087183;54;20042;-81
2022/12/30 04:51:05;;;;;;;3.42;1.35;;;;;;;7.12;76.88;99871.19;1087247;54;20034;-81
2022/12/30 04:52:12;;;;;;;4.00;1.23;;;;;;;7.19;76.69;99869.69;1087431;54;20030;-81
2022/12/30 04:53:14;;;;;;;4.05;1.40;;;;;;;7.08;76.60;99869.75;1087426;54;20069;-82
2022/12/30 04:54:18;;;;;;;7.13;1.23;;;;;;;7.08;76.95;99865.28;1087418;54;20118;-81
2022/12/30 04:55:19;;;;;;;4.82;1.23;;;;;;;7.03;77.08;99868.31;1087334;54;20089;-84
2022/12/30 04:56:24;;;;;;;3.88;1.42;;;;;;;7.06;76.84;99869.88;1087494;54;20034;-83
2022/12/30 04:57:25;;;;;;;3.60;1.17;;;;;;;7.12;76.86;99871.19;1087440;54;20058;-83
2022/12/30 04:58:29;;;;;;;3.72;1.30;;;;;;;7.14;76.53;99867.41;1087345;54;20038;-83
2022/12/30 04:59:31;;;;;;;3.97;1.13;;;;;;;7.20;76.72;99863.41;1087289;54;20710;-82
2022/12/30 05:00:35;;;;;;;4.43;1.10;;;;;;;7.08;76.91;99875.91;1087461;54;20034;-83
2022/12/30 05:01:36;;;;;;;3.78;1.17;;;;;;;7.14;77.05;99869.25;1087553;54;20039;-82
2022/12/30 05:02:41;;;;;;;3.67;1.10;;;;;;;7.16;76.81;99869.97;1087387;54;20053;-83
2022/12/30 05:03:42;;;;;;;4.32;1.30;;;;;;;7.17;76.90;99874.31;1094294;31;20788;-83
2022/12/30 05:04:46;;;;;;;2.80;1.15;;;;;;;7.12;77.08;99871.19;1087288;54;20034;-85
2022/12/30 05:05:49;;;;;;;3.03;1.17;;;;;;;7.12;77.13;99872.03;1087222;54;20059;-84
2022/12/30 05:06:58;;;;;;;4.97;1.20;;;;;;;7.03;77.69;99868.31;1087487;54;20031;-83
2022/12/30 05:08:06;;;;;;;3.10;1.02;;;;;;;7.04;77.94;99869.13;1087470;54;20018;-83
2022/12/30 05:09:13;;;;;;;4.93;1.40;;;;;;;6.95;77.96;99869.91;1087383;54;20030;-83
2022/12/30 05:10:24;;;;;;;3.20;1.10;;;;;;;6.84;78.68;99878.75;1087377;54;20038;-84
2022/12/30 05:11:29;;;;;;;3.28;1.10;;;;;;;6.76;78.92;99875.88;1088857;39;20627;-83
2022/12/30 05:12:37;;;;;;;3.70;1.17;;;;;;;6.72;79.43;99872.63;1087385;54;21039;-83
2022/12/30 05:13:41;;;;;;;3.80;1.23;;;;;;;6.70;79.71;99879.88;1087284;54;20030;-83
2022/12/30 05:14:48;;;;;;;4.05;0.93;;;;;;;6.76;79.46;99866.09;1086989;54;20034;-81
2022/12/30 05:15:59;;;;;;;3.80;1.13;;;;;;;6.72;79.55;99868.16;1087325;54;20053;-82
2022/12/30 05:17:07;;;;;;;3.60;0.98;;;;;;;6.63;80.03;99860.09;1087299;54;20123;-81
2022/12/30 05:18:12;;;;;;;3.90;1.05;;;;;;;6.74;79.54;99862.72;1090151;39;20677;-84
2022/12/30 05:19:25;;;;;;;2.50;1.00;;;;;;;6.71;79.44;99861.16;1087669;54;20038;-82
2022/12/30 05:20:33;;;;;;;3.20;1.20;;;;;;;6.76;79.23;99862.59;1087676;54;20094;-81
2022/12/30 05:21:41;;;;;;;3.00;0.98;;;;;;;6.69;79.62;99873.72;1087328;54;20042;-81
2022/12/30 05:22:49;;;;;;;3.65;1.00;;;;;;;6.69;79.60;99873.72;1087432;54;20041;-81
2022/12/30 05:26:29;;;;;;;4.88;1.08;;;;;;;6.81;79.35;99871.03;1087644;54;20064;-82
2022/12/30 05:27:31;;;;;;;2.28;0.85;;;;;;;6.78;79.57;99863.31;1087646;54;20038;-81
2022/12/30 05:28:35;;;;;;;3.22;0.90;;;;;;;6.72;79.63;99870.81;1087554;54;20061;-82
2022/12/30 05:29:36;;;;;;;2.35;0.80;;;;;;;6.74;79.86;99868.03;1087726;54;20120;-81
2022/12/30 05:30:40;;;;;;;2.97;1.15;;;;;;;6.79;79.39;99871.16;1087208;54;20034;-82
2022/12/30 05:31:42;;;;;;;3.00;0.95;;;;;;;6.83;79.34;99880.59;1087765;54;20042;-84
2022/12/30 05:32:47;;;;;;;2.60;0.90;;;;;;;6.83;79.11;99877.94;1087697;54;20030;-81
2022/12/30 05:33:48;;;;;;;4.63;1.23;;;;;;;6.84;79.38;99876.09;1087670;54;20023;-81
2022/12/30 05:34:52;;;;;;;3.08;1.20;;;;;;;6.84;79.24;99873.44;1087681;54;20034;-82
2022/12/30 05:35:54;;;;;;;2.92;1.00;;;;;;;6.86;79.39;99890.13;1087765;54;20046;-81
2022/12/30 05:36:58;;;;;;;4.90;1.20;;;;;;;6.87;79.04;99884.66;1087659;54;20086;-82
2022/12/30 05:38:00;;;;;;;4.63;1.20;;;;;;;6.77;79.44;99882.88;1087741;54;20034;-83
2022/12/30 05:39:07;;;;;;;2.92;1.10;;;;;;;6.64;79.96;99889.19;1087601;54;20034;-82
2022/12/30 05:40:11;;;;;;;4.03;1.35;;;;;;;6.58;80.47;99889.69;1087654;54;20090;-82
2022/12/30 05:41:15;;;;;;;3.38;1.23;;;;;;;6.46;80.73;99890.66;1087680;54;20045;-82
2022/12/30 05:42:16;;;;;;;3.15;0.95;;;;;;;6.50;80.97;99898.25;1087805;54;20045;-83
2022/12/30 05:43:21;;;;;;;2.90;1.10;;;;;;;6.48;80.93;99891.38;1087787;54;20046;-83
2022/12/30 05:44:22;;;;;;;2.95;1.00;;;;;;;6.53;80.45;99886.53;1087622;54;20068;-82
2022/12/30 05:45:26;;;;;;;3.22;0.98;;;;;;;6.39;80.94;99891.16;1087745;54;20041;-83
2022/12/30 05:46:28;;;;;;;2.88;1.00;;;;;;;6.45;81.16;99896.94;1087736;54;20050;-81
2022/12/30 05:47:32;;;;;;;2.85;1.10;;;;;;;6.43;81.04;99902.38;1087621;54;20030;-83
2022/12/30 05:48:34;;;;;;;2.70;1.10;;;;;;;6.41;81.04;99896.34;1087795;54;20046;-82
2022/12/30 05:49:38;;;;;;;2.17;0.85;;;;;;;6.32;81.65;99900.56;1087892;54;20030;-83
2022/12/30 05:50:40;;;;;;;2.90;1.00;;;;;;;6.32;81.84;99905.88;1087797;54;20161;-84
2022/12/30 05:51:44;;;;;;;2.88;0.98;;;;;;;6.31;81.95;99914.81;1087853;54;20112;-82
2022/12/30 05:52:45;;;;;;;2.70;0.95;;;;;;;6.32;81.81;99908.53;1087748;54;20038;-84
2022/12/30 05:53:49;;;;;;;3.28;1.10;;;;;;;6.30;81.71;99912.25;1087532;54;20033;-85
2022/12/30 05:54:53;;;;;;;3.78;1.45;;;;;;;6.28;81.95;99908.91;1087280;54;20042;-84
2022/12/30 05:55:58;;;;;;;3.60;1.10;;;;;;;6.31;81.80;99914.81;1087570;54;20724;-83
2022/12/30 05:56:59;;;;;;;3.15;1.13;;;;;;;6.19;82.07;99907.81;1087841;39;20725;-84
2022/12/30 05:58:03;;;;;;;3.53;1.23;;;;;;;6.25;81.95;99907.31;1088310;39;20627;-84
2022/12/30 05:59:05;;;;;;;2.80;1.10;;;;;;;6.18;82.09;99899.00;1087523;54;20031;-82
2022/12/30 06:00:11;;;;;;;3.10;1.05;;;;;;;6.15;82.15;99904.53;1089864;39;20620;-82
2022/12/30 06:01:12;;;;;;;3.38;1.00;;;;;;;6.13;82.56;99906.47;1087916;54;20039;-83
2022/12/30 06:02:18;;;;;;;2.85;1.13;;;;;;;6.10;82.59;99904.03;1088075;54;20035;-83
2022/12/30 06:03:19;;;;;;;3.40;1.20;;;;;;;6.12;82.26;99911.91;1092317;46;20035;-85
2022/12/30 06:04:23;;;;;;;3.30;1.10;;;;;;;6.12;82.36;99903.94;1088275;54;20042;-84
2022/12/30 06:05:25;;;;;;;2.78;1.05;;;;;;;6.20;81.95;99906.84;1087879;54;20057;-82
2022/12/30 06:06:29;;;;;;;3.05;1.10;;;;;;;6.12;82.39;99909.25;1087362;54;20038;-82
2022/12/30 06:07:30;;;;;;;3.22;1.15;;;;;;;6.16;82.09;99916.00;1087742;54;20038;-84
2022/12/30 06:08:35;;;;;;;3.60;1.10;;;;;;;6.29;81.25;99908.78;1087808;54;20041;-82
2022/12/30 06:09:36;;;;;;;2.97;1.10;;;;;;;6.38;81.00;99910.69;1087678;54;20077;-83
2022/12/30 06:10:43;;;;;;;2.85;1.27;;;;;;;6.40;80.98;99908.78;1087827;54;20034;-83
2022/12/30 06:11:45;;;;;;;3.47;1.35;;;;;;;6.46;80.73;99910.09;1087757;54;20046;-83
2022/12/30 06:12:49;;;;;;;2.67;1.00;;;;;;;6.55;80.10;99908.50;1087748;54;20038;-83
2022/12/30 06:13:51;;;;;;;2.65;1.08;;;;;;;6.57;79.84;99909.25;1087608;54;20045;-81
2022/12/30 06:14:55;;;;;;;3.55;1.38;;;;;;;6.51;80.21;99915.06;1087515;54;20034;-82
2022/12/30 06:15:56;;;;;;;4.40;1.67;;;;;;;6.51;80.09;99904.44;1087609;54;20042;-81
2022/12/30 06:17:00;;;;;;;3.17;1.33;;;;;;;6.40;80.48;99907.91;1087583;54;20035;-81
2022/12/30 06:18:02;;;;;;;3.20;1.48;;;;;;;6.19;81.30;99911.28;1087635;54;20070;-80
2022/12/30 06:19:07;;;;;;;3.22;1.55;;;;;;;6.11;81.51;99907.56;1087594;54;20030;-81
2022/12/30 06:20:09;;;;;;;3.63;1.10;;;;;;;6.03;81.75;99911.66;1087538;54;20157;-82
2022/12/30 06:21:13;;;;;;;4.38;1.23;;;;;;;5.99;82.15;99901.38;1089117;39;20945;-81
2022/12/30 06:22:15;;;;;;;3.95;1.25;;;;;;;5.99;82.32;99902.22;1087697;54;20035;-85
2022/12/30 06:23:19;;;;;;;5.03;1.27;;;;;;;6.07;81.99;99907.78;1089161;39;20635;-83
2022/12/30 06:24:20;;;;;;;3.17;1.25;;;;;;;6.02;82.16;99915.28;1087620;54;20061;-83
2022/12/30 06:25:24;;;;;;;4.32;1.30;;;;;;;6.01;82.08;99913.56;1087585;54;20027;-83
2022/12/30 06:26:29;;;;;;;4.05;1.55;;;;;;;6.05;82.12;99914.19;1087651;54;20042;-83
2022/12/30 06:27:33;;;;;;;2.70;1.10;;;;;;;6.06;81.88;99919.38;1087621;54;20038;-81
2022/12/30 06:28:34;;;;;;;3.58;1.30;;;;;;;6.03;81.91;99919.63;1087607;54;20065;-82
2022/12/30 06:29:38;;;;;;;4.38;1.65;;;;;;;6.14;81.64;99912.63;1087964;46;20094;-82
2022/12/30 06:30:40;;;;;;;3.33;1.20;;;;;;;6.16;81.09;99922.16;1087521;54;20041;-83
2022/12/30 06:31:44;;;;;;;3.53;1.27;;;;;;;6.16;81.14;99922.16;1087912;46;20124;-83
2022/12/30 06:32:46;;;;;;;3.15;1.20;;;;;;;6.03;81.60;99916.97;1087742;54;20038;-82
2022/12/30 06:33:50;;;;;;;3.95;1.50;;;;;;;6.03;81.70;99921.41;1087604;54;20030;-83
2022/12/30 06:34:52;;;;;;;3.90;1.38;;;;;;;6.01;81.87;99921.53;1087263;54;20046;-82
2022/12/30 06:35:56;;;;;;;5.80;1.30;;;;;;;6.01;81.66;99913.56;1087956;39;20677;-82
2022/12/30 06:36:57;;;;;;;3.58;1.38;;;;;;;6.01;81.78;99913.56;1087335;54;20042;-84
2022/12/30 06:38:02;;;;;;;4.07;1.95;;;;;;;6.06;81.47;99916.72;1087446;54;20030;-82
2022/12/30 06:39:03;;;;;;;3.50;1.60;;;;;;;6.05;81.45;99917.66;1087184;54;20050;-81
2022/12/30 06:40:09;;;;;;;3.30;1.20;;;;;;;5.97;81.62;99914.72;1087372;54;20039;-83
2022/12/30 06:41:10;;;;;;;4.53;1.75;;;;;;;5.99;81.73;99907.53;1087571;54;20121;-82
2022/12/30 06:42:17;;;;;;;2.95;1.38;;;;;;;5.99;81.48;99915.50;1087635;54;20037;-79
2022/12/30 06:43:19;;;;;;;3.25;1.30;;;;;;;6.07;81.48;99912.25;1087550;54;20046;-81
2022/12/30 06:44:24;;;;;;;4.38;1.95;;;;;;;6.04;81.31;99910.69;1087500;54;20108;-80
2022/12/30 06:45:25;;;;;;;3.70;1.40;;;;;;;6.05;81.08;99914.19;1087499;54;20106;-82
2022/12/30 06:46:30;;;;;;;3.25;1.40;;;;;;;6.10;81.22;99912.00;1088723;39;20978;-80
2022/12/30 06:47:31;;;;;;;4.10;1.10;;;;;;;6.07;81.07;99909.59;1087555;54;20041;-82
2022/12/30 06:48:35;;;;;;;3.75;1.50;;;;;;;6.02;81.30;99907.31;1087633;54;20038;-84